Terminal Aerodrome Forecast
Issued by NWS

Home | Current Version | Previous Version | Text Only | Print | Product List | Glossary On
Versions: 1 2 3 4 5 6 7 8 9 10 11 12 13 14 15 16 17 18 19 20 21 22 23 24
000
FTAK31 PANC 102329
TAFAHO
TAF
PAHO 102329Z 1100/1124 06005KT P6SM BKN050 OVC080
     FM110200 07007KT P6SM -RA SCT025 BKN050
     FM111200 18005KT P6SM VCSH SCT035 BKN100=

USA.gov is the U.S. government's official web portal to all federal, state and local government web resources and services.